Time;durP1;ratioP1;P1;durP2;ratioP2;P2;SDS_P1;SDS_P2;PMS_P1;PMS_P2;Temp;Humidity;BMP_temperature;BMP_pressure;BME280_temperature;BME280_humidity;BME280_pressure;Samples;Min_cycle;Max_cycle;Signal;HPM_P1;HPM_P2
2021/09/18 00:00:07;;;;;;;23.27;15.60;;;15.20;99.90;;;;;;4423916;32;20143;-68
2021/09/18 00:02:34;;;;;;;25.60;16.77;;;15.20;99.90;;;;;;4425410;32;20123;-70
2021/09/18 00:05:04;;;;;;;26.83;16.70;;;15.20;99.90;;;;;;4425059;32;20509;-70
2021/09/18 00:07:31;;;;;;;24.70;16.03;;;15.20;99.90;;;;;;4424547;32;20353;-69
2021/09/18 00:09:58;;;;;;;24.50;15.93;;;15.20;99.90;;;;;;4423503;32;20180;-69
2021/09/18 00:12:25;;;;;;;22.47;15.27;;;15.20;99.90;;;;;;4425350;32;20439;-70
2021/09/18 00:14:52;;;;;;;22.97;15.70;;;15.20;99.90;;;;;;4425158;32;20124;-70
2021/09/18 00:17:21;;;;;;;22.70;14.93;;;15.20;99.90;;;;;;4423844;32;20392;-70
2021/09/18 00:19:48;;;;;;;22.83;15.30;;;15.20;99.90;;;;;;4423509;32;20189;-70
2021/09/18 00:22:15;;;;;;;24.50;15.67;;;15.10;99.90;;;;;;4424542;32;20384;-69
2021/09/18 00:24:42;;;;;;;23.47;15.33;;;15.10;99.90;;;;;;4425065;32;20383;-68
2021/09/18 00:27:11;;;;;;;22.10;14.13;;;15.10;99.90;;;;;;4423130;32;20454;-71
2021/09/18 00:29:41;;;;;;;19.47;13.63;;;15.20;99.90;;;;;;4421004;32;20239;-70
2021/09/18 00:32:08;;;;;;;20.07;13.60;;;15.20;99.90;;;;;;4419097;32;20135;-70
2021/09/18 00:34:37;;;;;;;21.67;14.57;;;15.20;99.90;;;;;;4411517;32;20380;-68
2021/09/18 00:37:04;;;;;;;19.77;13.37;;;15.20;99.90;;;;;;4418635;32;20139;-70
2021/09/18 00:39:30;;;;;;;19.40;13.83;;;15.30;99.90;;;;;;4413876;32;20159;-68
2021/09/18 00:41:58;;;;;;;23.93;13.97;;;15.30;99.90;;;;;;4417890;32;20139;-69
2021/09/18 00:44:28;;;;;;;20.07;13.20;;;15.20;99.90;;;;;;4419137;32;20152;-69
2021/09/18 00:46:58;;;;;;;19.23;12.80;;;15.30;99.90;;;;;;4418797;32;20143;-70
2021/09/18 00:49:25;;;;;;;19.33;13.17;;;15.30;99.90;;;;;;4417378;32;20167;-71
2021/09/18 00:51:55;;;;;;;19.93;13.60;;;15.30;99.90;;;;;;4414200;32;20182;-70
2021/09/18 00:54:23;;;;;;;18.70;12.80;;;15.30;99.90;;;;;;4420077;32;20169;-69
2021/09/18 00:56:54;;;;;;;20.03;13.50;;;15.20;99.90;;;;;;4413816;32;20139;-69
2021/09/18 00:59:22;;;;;;;21.10;13.57;;;15.20;99.90;;;;;;4420167;32;20170;-71
2021/09/18 01:01:51;;;;;;;19.50;13.83;;;15.10;99.90;;;;;;4416838;32;20174;-71
2021/09/18 01:04:21;;;;;;;20.47;13.90;;;15.10;99.90;;;;;;4417212;32;20250;-70
2021/09/18 01:06:50;;;;;;;22.47;14.67;;;15.10;99.90;;;;;;4419356;32;20166;-69
2021/09/18 01:09:18;;;;;;;22.90;14.20;;;15.00;99.90;;;;;;4412770;32;20569;-70
2021/09/18 01:11:48;;;;;;;20.87;14.47;;;15.10;99.90;;;;;;4418260;32;20412;-71
2021/09/18 01:14:15;;;;;;;23.80;14.73;;;15.10;99.90;;;;;;4424319;32;20170;-70
2021/09/18 01:16:42;;;;;;;21.53;14.37;;;15.10;99.90;;;;;;4417769;32;20139;-70
2021/09/18 01:19:09;;;;;;;22.43;14.17;;;15.20;99.90;;;;;;4416992;32;20480;-69
2021/09/18 01:21:35;;;;;;;20.20;13.47;;;15.10;99.90;;;;;;4415241;32;20205;-69
2021/09/18 01:24:02;;;;;;;21.67;14.23;;;15.20;99.90;;;;;;4424513;32;20142;-70
2021/09/18 01:26:32;;;;;;;22.00;15.17;;;15.20;99.90;;;;;;4414779;32;20151;-71
2021/09/18 01:28:59;;;;;;;20.33;13.60;;;15.30;99.90;;;;;;4425624;32;20423;-69
2021/09/18 01:31:26;;;;;;;21.30;14.27;;;15.20;99.90;;;;;;4415292;32;20193;-69
2021/09/18 01:33:54;;;;;;;20.83;13.80;;;15.20;99.90;;;;;;4423150;32;20159;-70
2021/09/18 01:36:21;;;;;;;20.73;14.13;;;15.20;99.90;;;;;;4418987;32;20548;-69
2021/09/18 01:38:49;;;;;;;20.93;13.53;;;15.20;99.90;;;;;;4418170;32;20163;-69
2021/09/18 01:41:16;;;;;;;20.27;13.43;;;15.20;99.90;;;;;;4414698;32;20575;-70
2021/09/18 01:43:43;;;;;;;19.47;13.73;;;15.20;99.90;;;;;;4423411;32;20218;-70
2021/09/18 01:46:10;;;;;;;22.07;13.97;;;15.20;99.90;;;;;;4411569;32;20161;-70
2021/09/18 01:48:37;;;;;;;22.87;14.47;;;15.20;99.90;;;;;;4426175;32;20186;-68
2021/09/18 01:51:09;;;;;;;19.40;13.00;;;15.20;99.90;;;;;;4417956;32;20537;-69
2021/09/18 01:53:36;;;;;;;19.30;13.23;;;15.20;99.90;;;;;;4421543;32;20196;-69
2021/09/18 01:56:03;;;;;;;18.73;13.30;;;15.20;99.90;;;;;;4412517;32;20466;-69
2021/09/18 01:58:30;;;;;;;19.63;13.47;;;15.20;99.90;;;;;;4420157;32;20193;-69
2021/09/18 02:01:00;;;;;;;20.70;13.10;;;15.20;99.90;;;;;;4416849;32;20147;-69
2021/09/18 02:03:28;;;;;;;20.17;13.27;;;15.20;99.90;;;;;;4415874;32;20176;-69
2021/09/18 02:05:55;;;;;;;19.70;13.03;;;15.10;99.90;;;;;;4412528;32;20254;-69
2021/09/18 02:08:25;;;;;;;21.30;13.53;;;15.10;99.90;;;;;;4426315;32;20358;-69
2021/09/18 02:10:53;;;;;;;21.70;14.07;;;15.10;99.90;;;;;;4425641;32;20196;-70
2021/09/18 02:13:24;;;;;;;20.33;13.50;;;15.10;99.90;;;;;;4426505;32;20158;-70
2021/09/18 02:15:51;;;;;;;20.47;14.23;;;15.20;99.90;;;;;;4426711;32;20180;-70
2021/09/18 02:18:18;;;;;;;20.47;14.27;;;15.20;99.90;;;;;;4425560;32;20139;-70
2021/09/18 02:20:46;;;;;;;20.57;13.70;;;15.10;99.90;;;;;;4424670;32;20167;-69
2021/09/18 02:23:13;;;;;;;22.73;14.37;;;15.10;99.90;;;;;;4426624;32;20172;-69
2021/09/18 02:25:41;;;;;;;24.13;14.17;;;15.20;99.90;;;;;;4426009;32;20134;-70
2021/09/18 02:28:08;;;;;;;23.17;14.10;;;15.10;99.90;;;;;;4426005;32;20127;-69
2021/09/18 02:30:37;;;;;;;22.70;13.80;;;15.20;99.90;;;;;;4424020;32;20182;-69
2021/09/18 02:33:05;;;;;;;19.97;13.83;;;15.10;99.90;;;;;;4424589;32;20210;-69
2021/09/18 02:35:37;;;;;;;21.97;14.07;;;15.10;99.90;;;;;;4426323;32;20143;-69
2021/09/18 02:38:06;;;;;;;21.40;13.47;;;15.10;99.90;;;;;;4426256;32;20174;-69
2021/09/18 02:40:35;;;;;;;20.50;13.27;;;15.20;99.90;;;;;;4424271;32;20131;-69
2021/09/18 02:43:05;;;;;;;20.90;13.60;;;15.20;99.90;;;;;;4426175;32;20170;-69
2021/09/18 02:45:32;;;;;;;20.83;13.77;;;15.20;99.90;;;;;;4426249;32;20457;-69
2021/09/18 02:47:59;;;;;;;22.83;14.53;;;15.10;99.90;;;;;;4426157;32;20135;-69
2021/09/18 02:50:28;;;;;;;21.70;13.83;;;15.20;99.90;;;;;;4425987;32;20147;-69
2021/09/18 02:52:55;;;;;;;22.53;14.27;;;15.20;99.90;;;;;;4425630;32;20423;-70
2021/09/18 02:55:22;;;;;;;22.10;14.00;;;15.20;99.90;;;;;;4425746;32;20123;-69
2021/09/18 02:57:48;;;;;;;20.40;13.53;;;15.20;99.90;;;;;;4424101;32;20401;-69
2021/09/18 03:00:16;;;;;;;21.13;13.50;;;15.20;99.90;;;;;;4424071;32;20190;-69
2021/09/18 03:02:43;;;;;;;23.33;14.50;;;15.20;99.90;;;;;;4425409;32;20127;-69
2021/09/18 03:05:14;;;;;;;22.63;14.23;;;15.20;99.90;;;;;;4424344;32;20487;-69
2021/09/18 03:07:41;;;;;;;22.23;13.83;;;15.20;99.90;;;;;;4424178;32;20143;-70
2021/09/18 03:10:09;;;;;;;24.20;14.67;;;15.30;99.90;;;;;;4425636;32;20401;-70
2021/09/18 03:12:38;;;;;;;25.90;15.53;;;15.20;99.90;;;;;;4424627;32;20433;-70
2021/09/18 03:15:07;;;;;;;22.67;14.27;;;15.20;99.90;;;;;;4423395;32;20246;-70
2021/09/18 03:17:34;;;;;;;24.83;14.80;;;15.20;99.90;;;;;;4425715;32;20127;-70
2021/09/18 03:20:07;;;;;;;24.00;15.13;;;15.20;99.90;;;;;;4424013;32;20495;-70
2021/09/18 03:22:34;;;;;;;25.43;15.73;;;15.20;99.90;;;;;;4425116;32;20131;-70
2021/09/18 03:25:06;;;;;;;24.97;15.50;;;15.20;99.90;;;;;;4425451;32;20180;-69
2021/09/18 03:27:33;;;;;;;27.13;16.20;;;15.10;99.90;;;;;;4425503;32;20364;-69
2021/09/18 03:30:04;;;;;;;29.00;16.80;;;15.10;99.90;;;;;;4425624;32;20173;-69
2021/09/18 03:32:30;;;;;;;25.93;15.07;;;15.10;99.90;;;;;;4425639;32;20184;-69
2021/09/18 03:34:58;;;;;;;27.47;15.80;;;15.10;99.90;;;;;;4425674;32;20149;-69
2021/09/18 03:37:25;;;;;;;26.67;16.03;;;15.10;99.90;;;;;;4425350;32;20176;-69
2021/09/18 03:39:52;;;;;;;27.10;15.93;;;15.20;99.90;;;;;;4425026;32;20549;-69
2021/09/18 03:42:22;;;;;;;27.40;16.73;;;15.20;99.90;;;;;;4424022;32;20514;-68
2021/09/18 03:44:49;;;;;;;28.83;16.77;;;15.20;99.90;;;;;;4425594;32;20150;-69
2021/09/18 03:47:16;;;;;;;30.73;18.17;;;15.20;99.90;;;;;;4424275;32;20205;-70
2021/09/18 03:49:43;;;;;;;28.33;17.60;;;15.10;99.90;;;;;;4425490;32;20376;-69
2021/09/18 03:52:10;;;;;;;30.60;17.53;;;15.10;99.90;;;;;;4423624;32;20530;-69
2021/09/18 03:54:37;;;;;;;32.03;15.87;;;15.10;99.90;;;;;;4424069;32;20247;-68
2021/09/18 03:57:04;;;;;;;17.03;10.17;;;15.10;99.90;;;;;;4425468;32;20482;-68
2021/09/18 03:59:31;;;;;;;13.00;8.33;;;15.10;99.90;;;;;;4424677;32;20219;-68
2021/09/18 04:01:58;;;;;;;13.80;8.10;;;15.00;99.90;;;;;;4423318;32;20251;-67
2021/09/18 04:04:25;;;;;;;11.30;7.57;;;14.90;99.90;;;;;;4424480;32;20388;-69
2021/09/18 04:06:53;;;;;;;11.77;7.47;;;14.80;99.90;;;;;;4423735;32;20158;-68
2021/09/18 04:09:23;;;;;;;10.87;7.00;;;14.70;99.90;;;;;;4424658;32;20477;-68
2021/09/18 04:11:50;;;;;;;10.57;7.20;;;14.50;99.90;;;;;;4425482;32;20131;-68
2021/09/18 04:14:19;;;;;;;10.90;6.93;;;14.50;99.90;;;;;;4425527;32;20131;-69
2021/09/18 04:16:49;;;;;;;11.70;7.40;;;14.40;99.90;;;;;;4423557;32;20490;-69
2021/09/18 04:19:19;;;;;;;13.10;7.70;;;14.30;99.90;;;;;;4425116;32;20384;-68
2021/09/18 04:21:45;;;;;;;12.13;7.73;;;14.30;99.90;;;;;;4423437;32;20569;-68
2021/09/18 04:24:15;;;;;;;11.47;7.77;;;14.30;99.90;;;;;;4425313;32;20388;-68
2021/09/18 04:26:45;;;;;;;11.83;7.73;;;14.20;99.90;;;;;;4428375;32;20189;-68
2021/09/18 04:29:14;;;;;;;12.80;7.70;;;14.30;99.90;;;;;;4428251;32;20130;-67
2021/09/18 04:31:44;;;;;;;15.20;8.30;;;14.20;99.90;;;;;;4428259;32;20469;-68
2021/09/18 04:34:10;;;;;;;13.03;8.00;;;14.20;99.90;;;;;;4427658;32;20151;-68
2021/09/18 04:36:40;;;;;;;13.23;8.43;;;14.20;99.90;;;;;;4428123;32;20201;-68
2021/09/18 04:39:07;;;;;;;13.90;9.10;;;14.20;99.90;;;;;;4426308;32;20167;-68
2021/09/18 04:41:34;;;;;;;15.97;8.23;;;14.10;99.90;;;;;;4426475;32;20147;-68
2021/09/18 04:44:01;;;;;;;15.33;8.80;;;14.10;99.90;;;;;;4428318;32;20184;-68
2021/09/18 04:46:31;;;;;;;13.77;8.53;;;14.00;99.90;;;;;;4425140;32;20163;-68
2021/09/18 04:48:59;;;;;;;15.77;8.80;;;14.00;99.90;;;;;;4428000;32;20139;-68
2021/09/18 04:51:26;;;;;;;17.67;10.07;;;13.90;99.90;;;;;;4427779;32;20369;-69
2021/09/18 04:53:53;;;;;;;15.57;9.47;;;13.90;99.90;;;;;;4428062;32;20358;-69
2021/09/18 04:56:26;;;;;;;18.43;10.47;;;13.80;99.90;;;;;;4428146;32;20176;-69
2021/09/18 04:58:55;;;;;;;16.40;9.43;;;13.70;99.90;;;;;;4427281;32;20184;-69
2021/09/18 05:01:22;;;;;;;23.10;10.27;;;13.70;99.90;;;;;;4427232;32;20147;-69
2021/09/18 05:03:49;;;;;;;16.00;9.27;;;13.70;99.90;;;;;;4426008;32;20123;-69
2021/09/18 05:06:19;;;;;;;16.60;9.60;;;13.60;99.90;;;;;;4425997;32;20128;-69
2021/09/18 05:08:50;;;;;;;15.57;9.07;;;13.60;99.90;;;;;;4427631;32;20155;-69
2021/09/18 05:11:17;;;;;;;16.60;9.30;;;13.50;99.90;;;;;;4427774;32;20127;-69
2021/09/18 05:13:44;;;;;;;15.10;8.63;;;13.50;99.90;;;;;;4426126;32;20515;-68
2021/09/18 05:16:17;;;;;;;17.60;9.33;;;13.50;99.90;;;;;;4427693;32;20127;-69
2021/09/18 05:18:43;;;;;;;15.40;8.87;;;13.50;99.90;;;;;;4426268;32;20202;-69
2021/09/18 05:21:10;;;;;;;15.50;8.87;;;13.50;99.90;;;;;;4427498;32;20460;-69
2021/09/18 05:23:39;;;;;;;15.20;9.17;;;13.40;99.90;;;;;;4425859;32;20123;-69
2021/09/18 05:26:06;;;;;;;15.63;9.17;;;13.40;99.90;;;;;;4425953;32;20216;-69
2021/09/18 05:28:36;;;;;;;15.97;8.90;;;13.40;99.90;;;;;;4427347;32;20453;-69
2021/09/18 05:31:02;;;;;;;13.53;8.17;;;13.30;99.90;;;;;;4425649;32;20123;-69
2021/09/18 05:33:32;;;;;;;14.63;8.63;;;13.30;99.90;;;;;;4426281;32;20134;-69
2021/09/18 05:35:59;;;;;;;15.17;8.53;;;13.30;99.90;;;;;;4425478;32;20378;-69
2021/09/18 05:38:26;;;;;;;13.43;8.57;;;13.20;99.90;;;;;;4424939;32;20178;-70
2021/09/18 05:40:55;;;;;;;22.87;9.20;;;13.20;99.90;;;;;;4427477;32;20159;-69
2021/09/18 05:43:26;;;;;;;15.60;8.70;;;13.10;99.90;;;;;;4425373;32;20130;-70
2021/09/18 05:45:53;;;;;;;14.00;8.50;;;13.10;99.90;;;;;;4425441;32;20192;-70
2021/09/18 05:48:19;;;;;;;14.40;7.20;;;13.00;99.90;;;;;;4426719;32;20129;-69
2021/09/18 05:50:49;;;;;;;12.03;7.63;;;13.00;99.90;;;;;;4426835;32;20135;-69
2021/09/18 05:53:18;;;;;;;13.03;8.70;;;13.00;99.90;;;;;;4427223;32;20444;-69
2021/09/18 05:55:45;;;;;;;14.63;9.00;;;13.00;99.90;;;;;;4425116;32;20135;-69
2021/09/18 05:58:12;;;;;;;13.93;8.60;;;13.00;99.90;;;;;;4425139;32;20158;-69
2021/09/18 06:00:39;;;;;;;14.13;8.30;;;13.00;99.90;;;;;;4425401;32;20170;-70
2021/09/18 06:03:09;;;;;;;15.83;8.37;;;13.00;99.90;;;;;;4427082;32;20126;-71
2021/09/18 06:05:37;;;;;;;17.73;9.10;;;13.00;99.90;;;;;;4425876;32;20501;-71
2021/09/18 06:08:08;;;;;;;13.70;8.53;;;13.00;99.90;;;;;;4426170;32;20154;-70
2021/09/18 06:10:37;;;;;;;13.03;7.93;;;13.00;99.90;;;;;;4426081;32;20512;-71
2021/09/18 06:13:06;;;;;;;12.33;7.43;;;12.90;99.90;;;;;;4426912;32;20215;-70
2021/09/18 06:15:33;;;;;;;12.17;7.30;;;12.80;99.90;;;;;;4426068;32;20131;-70
2021/09/18 06:18:00;;;;;;;11.77;7.23;;;12.80;99.90;;;;;;4425396;32;20123;-71
2021/09/18 06:20:30;;;;;;;12.03;6.93;;;12.70;99.90;;;;;;4426932;32;20188;-71
2021/09/18 06:22:56;;;;;;;13.27;7.57;;;12.90;99.90;;;;;;4426389;32;20219;-70
2021/09/18 06:25:23;;;;;;;13.20;7.83;;;12.80;99.90;;;;;;4426566;32;20243;-69
2021/09/18 06:27:52;;;;;;;12.77;7.90;;;12.70;99.90;;;;;;4424914;32;20127;-71
2021/09/18 06:30:19;;;;;;;13.47;7.97;;;12.70;99.90;;;;;;4424761;32;20127;-70
2021/09/18 06:32:46;;;;;;;14.13;8.00;;;12.70;99.90;;;;;;4426650;32;20172;-70
2021/09/18 06:35:13;;;;;;;13.37;8.70;;;12.70;99.90;;;;;;4426670;32;20139;-70
2021/09/18 06:37:44;;;;;;;17.87;9.57;;;12.70;99.90;;;;;;4426224;32;20139;-69
2021/09/18 06:40:14;;;;;;;12.13;7.73;;;12.70;99.90;;;;;;4425721;32;20212;-70
2021/09/18 06:42:42;;;;;;;13.63;7.33;;;12.70;99.90;;;;;;4426071;32;20143;-70
2021/09/18 06:45:12;;;;;;;11.67;7.13;;;12.60;99.90;;;;;;4425914;32;20131;-70
2021/09/18 06:47:42;;;;;;;14.27;7.30;;;12.60;99.90;;;;;;4424600;32;20135;-70
2021/09/18 06:50:10;;;;;;;11.33;7.50;;;12.60;99.90;;;;;;4424750;32;20131;-70
2021/09/18 06:52:45;;;;;;;12.03;7.47;;;12.50;99.90;;;;;;4424325;32;20189;-70
2021/09/18 06:55:14;;;;;;;15.37;8.43;;;12.40;99.90;;;;;;4426285;32;20234;-69
2021/09/18 06:57:41;;;;;;;13.07;8.50;;;12.40;99.90;;;;;;4424734;32;20131;-70
2021/09/18 07:00:09;;;;;;;14.80;8.93;;;12.30;99.90;;;;;;4424045;32;20215;-71
2021/09/18 07:02:35;;;;;;;14.83;9.53;;;12.30;99.90;;;;;;4426179;32;20160;-70
2021/09/18 07:05:07;;;;;;;14.30;9.13;;;12.40;99.90;;;;;;4425929;32;20147;-70
2021/09/18 07:07:34;;;;;;;16.83;9.90;;;12.40;99.90;;;;;;4424607;32;20131;-71
2021/09/18 07:10:02;;;;;;;14.90;9.20;;;12.40;99.90;;;;;;4425153;32;20132;-71
2021/09/18 07:12:32;;;;;;;14.43;8.47;;;12.40;99.90;;;;;;4425473;32;20529;-72
2021/09/18 07:14:59;;;;;;;13.03;7.93;;;12.40;99.90;;;;;;4426053;32;20123;-71
2021/09/18 07:17:29;;;;;;;10.57;6.87;;;12.40;99.90;;;;;;4425328;32;20143;-70
2021/09/18 07:20:00;;;;;;;11.43;7.27;;;12.30;99.90;;;;;;4424077;32;20192;-71
2021/09/18 07:22:27;;;;;;;13.80;8.73;;;12.30;99.90;;;;;;4425049;32;20178;-71
2021/09/18 07:24:57;;;;;;;16.33;9.00;;;12.20;99.90;;;;;;4425908;32;20127;-70
2021/09/18 07:27:24;;;;;;;12.30;7.63;;;12.20;99.90;;;;;;4426134;32;20127;-71
2021/09/18 07:29:56;;;;;;;13.93;8.57;;;12.30;99.90;;;;;;4425151;32;20397;-69
2021/09/18 07:32:27;;;;;;;11.03;7.27;;;12.30;99.90;;;;;;4425258;32;20183;-70
2021/09/18 07:34:56;;;;;;;11.50;7.80;;;12.30;99.90;;;;;;4423960;32;20131;-79
2021/09/18 07:37:24;;;;;;;11.20;7.07;;;12.30;99.90;;;;;;4424580;32;20170;-70
2021/09/18 07:39:51;;;;;;;11.93;6.97;;;12.40;99.90;;;;;;4423896;32;20131;-69
2021/09/18 07:42:20;;;;;;;10.83;6.90;;;12.40;99.90;;;;;;4424685;32;20174;-68
2021/09/18 07:44:49;;;;;;;10.40;6.70;;;12.50;99.90;;;;;;4425427;32;20123;-69
2021/09/18 07:47:16;;;;;;;7.80;6.03;;;12.60;99.90;;;;;;4424474;32;20184;-68
2021/09/18 07:49:42;;;;;;;8.70;6.00;;;12.60;99.90;;;;;;4424883;32;20150;-69
2021/09/18 07:52:09;;;;;;;10.23;5.83;;;12.70;99.90;;;;;;4423650;32;20176;-69
2021/09/18 07:54:36;;;;;;;9.00;5.87;;;12.70;99.90;;;;;;4425623;32;20127;-69
2021/09/18 07:57:23;;;;;;;9.23;6.20;;;12.80;99.90;;;;;;4423625;32;20167;-69
2021/09/18 07:59:55;;;;;;;9.10;6.33;;;12.80;99.90;;;;;;4425991;32;20151;-68
2021/09/18 08:02:25;;;;;;;8.83;5.60;;;12.70;99.90;;;;;;4428605;32;20177;-70
2021/09/18 08:04:52;;;;;;;7.93;5.70;;;12.70;99.90;;;;;;4428337;32;20147;-69
2021/09/18 08:07:21;;;;;;;9.10;5.20;;;12.70;99.90;;;;;;4429917;32;20139;-68
2021/09/18 08:09:55;;;;;;;7.50;4.93;;;12.70;99.90;;;;;;4428608;32;20154;-69
2021/09/18 08:12:27;;;;;;;7.17;4.97;;;12.70;99.90;;;;;;4430176;32;20187;-70
2021/09/18 08:14:54;;;;;;;7.73;5.07;;;12.80;99.90;;;;;;4428757;32;20177;-69
2021/09/18 08:17:21;;;;;;;7.90;4.97;;;12.90;99.90;;;;;;4429677;32;20481;-70
2021/09/18 08:19:49;;;;;;;7.90;5.17;;;13.00;99.90;;;;;;4429830;32;20150;-69
2021/09/18 08:22:16;;;;;;;9.83;6.53;;;12.90;99.90;;;;;;4428097;32;20146;-70
2021/09/18 08:24:43;;;;;;;8.87;6.27;;;12.80;99.90;;;;;;4429067;32;20151;-70
2021/09/18 08:27:10;;;;;;;10.17;6.70;;;12.90;99.90;;;;;;4430291;32;20188;-70
2021/09/18 08:29:37;;;;;;;11.07;6.50;;;13.00;99.90;;;;;;4430904;32;20181;-71
2021/09/18 08:32:04;;;;;;;9.70;6.23;;;13.30;99.90;;;;;;4429018;32;20127;-70
2021/09/18 08:34:31;;;;;;;6.97;4.87;;;13.40;99.90;;;;;;4428314;32;20456;-70
2021/09/18 08:37:00;;;;;;;6.00;4.53;;;13.40;99.90;;;;;;4429786;32;20162;-70
2021/09/18 08:39:27;;;;;;;5.57;4.30;;;13.40;99.90;;;;;;4428095;32;20151;-70
2021/09/18 08:41:54;;;;;;;6.57;3.77;;;13.30;99.90;;;;;;4427779;32;20131;-69
2021/09/18 08:44:24;;;;;;;5.87;3.90;;;13.30;99.90;;;;;;4427984;32;20176;-69
2021/09/18 08:46:55;;;;;;;5.53;3.87;;;13.40;99.90;;;;;;4428258;32;20133;-71
2021/09/18 08:49:22;;;;;;;5.93;3.27;;;13.20;99.90;;;;;;4429971;32;20127;-69
2021/09/18 08:51:48;;;;;;;5.20;3.17;;;13.20;99.90;;;;;;4427860;32;20359;-70
2021/09/18 08:54:15;;;;;;;4.37;3.00;;;13.10;99.90;;;;;;4429483;32;20139;-69
2021/09/18 08:56:42;;;;;;;7.00;3.07;;;13.00;99.90;;;;;;4429505;32;20127;-69
2021/09/18 08:59:09;;;;;;;4.63;2.93;;;13.00;99.90;;;;;;4428550;32;20151;-70
2021/09/18 09:01:38;;;;;;;5.70;2.83;;;13.10;99.90;;;;;;4427733;32;20195;-69
2021/09/18 09:04:10;;;;;;;5.73;3.30;;;13.20;99.90;;;;;;4427927;32;20139;-70
2021/09/18 09:06:50;;;;;;;4.43;2.90;;;13.30;99.90;;;;;;4428002;32;20178;-70
2021/09/18 09:09:17;;;;;;;4.40;2.73;;;13.30;99.90;;;;;;4429775;32;20202;-69
2021/09/18 09:11:53;;;;;;;4.90;2.23;;;13.30;99.90;;;;;;4427474;32;20224;-69
2021/09/18 09:14:20;;;;;;;4.07;2.80;;;13.30;99.90;;;;;;4427164;32;20439;-70
2021/09/18 09:17:07;;;;;;;3.83;2.63;;;13.30;99.90;;;;;;4426181;32;20244;-71
2021/09/18 09:19:39;;;;;;;4.83;2.80;;;13.20;99.90;;;;;;4426107;32;20123;-70
2021/09/18 09:22:07;;;;;;;3.50;2.87;;;13.10;99.90;;;;;;4425796;32;20142;-70
2021/09/18 09:24:47;;;;;;;5.90;3.17;;;13.10;99.90;;;;;;4426515;32;20437;-70
2021/09/18 09:27:16;;;;;;;4.50;2.60;;;13.00;99.90;;;;;;4426327;32;20425;-69
2021/09/18 09:29:52;;;;;;;4.43;2.63;;;12.80;99.90;;;;;;4426637;32;20139;-69
2021/09/18 09:32:41;;;;;;;3.87;2.60;;;12.70;99.90;;;;;;4426272;32;20379;-70
2021/09/18 09:35:14;;;;;;;5.63;2.77;;;12.60;99.90;;;;;;4426265;32;20131;-70
2021/09/18 09:37:55;;;;;;;6.27;3.10;;;12.60;99.90;;;;;;4425401;32;20123;-70
2021/09/18 09:40:44;;;;;;;4.23;2.87;;;12.50;99.90;;;;;;4426549;32;20528;-70
2021/09/18 09:43:15;;;;;;;5.27;2.97;;;12.50;99.90;;;;;;4425954;32;20177;-68
2021/09/18 09:45:43;;;;;;;3.57;2.73;;;12.50;99.90;;;;;;4425150;32;20188;-70
2021/09/18 09:48:21;;;;;;;4.83;3.10;;;12.40;99.90;;;;;;4424305;32;20183;-69
2021/09/18 09:51:01;;;;;;;5.40;3.20;;;12.30;99.90;;;;;;4427050;32;20193;-70
2021/09/18 09:53:33;;;;;;;4.63;3.50;;;12.30;99.90;;;;;;4424992;32;20260;-69
2021/09/18 09:56:06;;;;;;;6.70;4.53;;;12.10;99.90;;;;;;4425066;32;20151;-69
2021/09/18 09:58:56;;;;;;;6.83;4.77;;;12.10;99.90;;;;;;4426562;32;20136;-70
2021/09/18 10:01:25;;;;;;;6.97;5.10;;;11.90;99.90;;;;;;4426415;32;20132;-69
2021/09/18 10:03:53;;;;;;;8.77;5.83;;;11.90;99.90;;;;;;4426260;32;20134;-69
2021/09/18 10:06:30;;;;;;;8.50;5.63;;;11.80;99.90;;;;;;4425146;32;20177;-70
2021/09/18 10:09:01;;;;;;;10.23;6.70;;;11.80;99.90;;;;;;4425761;32;20202;-70
2021/09/18 10:11:34;;;;;;;9.43;6.90;;;11.70;99.90;;;;;;4426845;32;20243;-70
2021/09/18 10:14:02;;;;;;;9.40;6.50;;;11.70;99.90;;;;;;4424838;32;20139;-70
2021/09/18 10:16:33;;;;;;;9.13;6.60;;;11.80;99.90;;;;;;4426591;32;20183;-70
2021/09/18 10:19:09;;;;;;;9.57;6.93;;;12.10;99.90;;;;;;4424018;32;20465;-69
2021/09/18 10:24:32;;;;;;;6.83;5.50;;;12.30;99.90;;;;;;4425970;32;20194;-70
2021/09/18 10:27:19;;;;;;;7.47;5.37;;;12.40;99.90;;;;;;4423838;32;20151;-68
2021/09/18 10:29:48;;;;;;;8.43;5.50;;;12.40;99.90;;;;;;4426090;32;20387;-68
2021/09/18 10:32:17;;;;;;;6.20;4.80;;;12.40;99.90;;;;;;4424584;32;20202;-67
2021/09/18 10:34:47;;;;;;;6.00;4.57;;;12.40;99.90;;;;;;4418163;32;20457;-68
2021/09/18 10:37:33;;;;;;;6.80;4.90;;;12.40;99.90;;;;;;4412376;32;20518;-67
2021/09/18 10:40:06;;;;;;;5.63;4.53;;;12.40;99.90;;;;;;4422261;32;20166;-68
2021/09/18 10:42:45;;;;;;;5.10;3.50;;;12.40;99.90;;;;;;4425930;32;20131;-67
2021/09/18 10:45:15;;;;;;;5.47;3.90;;;12.30;99.90;;;;;;4425524;32;20154;-68
2021/09/18 10:47:50;;;;;;;5.43;4.20;;;12.20;99.90;;;;;;4424826;32;20140;-66
2021/09/18 10:50:23;;;;;;;5.23;4.30;;;12.10;99.90;;;;;;4425903;32;20405;-67
2021/09/18 10:53:00;;;;;;;7.17;4.70;;;12.10;99.90;;;;;;4424102;32;20135;-67
2021/09/18 10:55:27;;;;;;;6.07;4.60;;;12.10;99.90;;;;;;4425368;32;20123;-67
2021/09/18 10:58:04;;;;;;;5.90;4.63;;;12.00;99.90;;;;;;4423846;32;20131;-67
2021/09/18 11:00:40;;;;;;;5.13;4.23;;;12.00;99.90;;;;;;4423705;32;20143;-67
2021/09/18 11:03:07;;;;;;;5.50;4.37;;;12.10;99.90;;;;;;4424179;32;20158;-67
2021/09/18 11:05:37;;;;;;;5.10;4.53;;;12.30;99.90;;;;;;4425767;32;20457;-67
2021/09/18 11:08:21;;;;;;;6.23;4.67;;;12.60;99.90;;;;;;4425805;32;20574;-67
2021/09/18 11:10:59;;;;;;;5.83;4.60;;;12.60;99.90;;;;;;4424032;32;20446;-68
2021/09/18 11:13:31;;;;;;;7.00;4.87;;;12.50;99.90;;;;;;4424501;32;20218;-68
2021/09/18 11:16:20;;;;;;;5.83;4.87;;;12.50;99.90;;;;;;4422294;32;20166;-67
2021/09/18 11:19:15;;;;;;;6.77;5.00;;;12.40;99.90;;;;;;4361251;32;20137;-68
2021/09/18 11:21:46;;;;;;;4.80;3.80;;;12.30;99.90;;;;;;4359387;33;20172;-67
2021/09/18 11:24:15;;;;;;;3.97;3.57;;;12.30;99.90;;;;;;4361267;32;20235;-68
2021/09/18 11:26:52;;;;;;;4.90;3.47;;;12.20;99.90;;;;;;4362868;32;20286;-67
2021/09/18 11:29:33;;;;;;;3.73;3.33;;;12.20;99.90;;;;;;4362123;32;20144;-67
2021/09/18 11:32:18;;;;;;;5.97;3.70;;;12.30;99.90;;;;;;4362848;32;20216;-67
2021/09/18 11:34:50;;;;;;;6.17;3.97;;;12.40;99.90;;;;;;4362370;32;20132;-67
2021/09/18 11:37:23;;;;;;;5.77;4.03;;;12.50;99.90;;;;;;4361358;33;20144;-67
2021/09/18 11:40:01;;;;;;;4.87;3.70;;;12.50;99.90;;;;;;4362802;32;20153;-70
2021/09/18 11:42:44;;;;;;;6.13;4.37;;;12.60;99.90;;;;;;4362491;32;20155;-67
2021/09/18 11:45:18;;;;;;;6.13;4.93;;;12.70;99.90;;;;;;4361407;33;20240;-67
2021/09/18 11:47:48;;;;;;;5.00;4.50;;;12.70;99.90;;;;;;4361326;33;20194;-67
2021/09/18 11:50:26;;;;;;;4.40;4.00;;;12.80;99.90;;;;;;4361213;33;20153;-66
2021/09/18 11:53:05;;;;;;;4.97;4.40;;;12.80;99.90;;;;;;4361104;33;20162;-68
2021/09/18 11:55:40;;;;;;;4.50;4.10;;;12.90;99.90;;;;;;4382464;32;20511;-67
2021/09/18 11:58:10;;;;;;;5.33;4.57;;;12.90;99.90;;;;;;4424517;32;20417;-68
2021/09/18 12:00:59;;;;;;;6.60;4.13;;;12.80;99.90;;;;;;4423974;32;20450;-68
2021/09/18 12:03:34;;;;;;;4.80;4.30;;;12.70;99.90;;;;;;4424442;32;20165;-67
2021/09/18 12:06:03;;;;;;;4.73;4.07;;;12.60;99.90;;;;;;4423747;32;20130;-67
2021/09/18 12:08:32;;;;;;;4.40;4.00;;;12.70;99.90;;;;;;4422917;32;20155;-67
2021/09/18 12:11:08;;;;;;;4.57;3.87;;;12.70;99.90;;;;;;4423546;32;20132;-67
2021/09/18 12:13:41;;;;;;;4.60;4.20;;;12.60;99.90;;;;;;4423372;32;20135;-67
2021/09/18 12:16:08;;;;;;;4.67;4.03;;;12.60;99.90;;;;;;4425217;32;20207;-66
2021/09/18 12:18:38;;;;;;;4.50;4.10;;;12.50;99.90;;;;;;4423131;32;20123;-67
2021/09/18 12:21:15;;;;;;;4.40;3.93;;;12.50;99.90;;;;;;4423632;32;20274;-67
2021/09/18 12:24:00;;;;;;;3.40;3.10;;;12.50;99.90;;;;;;4424126;32;20158;-66
2021/09/18 12:26:32;;;;;;;3.70;3.30;;;12.50;99.90;;;;;;4424601;32;20179;-67
2021/09/18 12:29:14;;;;;;;3.93;3.37;;;12.40;99.90;;;;;;4423435;32;20238;-68
2021/09/18 12:31:47;;;;;;;3.67;2.93;;;12.50;99.90;;;;;;4423602;32;20254;-67
2021/09/18 12:34:20;;;;;;;3.20;2.10;;;12.40;99.90;;;;;;4422792;32;20131;-66
2021/09/18 12:36:47;;;;;;;2.00;1.80;;;12.40;99.90;;;;;;4422985;32;20172;-67
2021/09/18 12:39:18;;;;;;;2.80;2.00;;;12.20;99.90;;;;;;4422957;32;20211;-68
2021/09/18 12:41:44;;;;;;;3.03;2.20;;;12.10;99.90;;;;;;4423611;32;20533;-67
2021/09/18 12:44:16;;;;;;;3.60;2.60;;;12.00;99.90;;;;;;4423574;32;20449;-66
2021/09/18 12:46:48;;;;;;;3.67;2.03;;;11.80;99.90;;;;;;4426042;32;20157;-66
2021/09/18 12:49:21;;;;;;;2.10;1.70;;;11.80;99.90;;;;;;4425995;32;20135;-67
2021/09/18 12:51:59;;;;;;;2.00;1.77;;;11.70;99.90;;;;;;4425325;32;20123;-67
2021/09/18 12:54:28;;;;;;;2.07;1.80;;;11.60;99.90;;;;;;4425902;32;20415;-66